Time;durP1;ratioP1;P1;durP2;ratioP2;P2;SDS_P1;SDS_P2;PMS_P1;PMS_P2;Temp;Humidity;BMP_temperature;BMP_pressure;BME280_temperature;BME280_humidity;BME280_pressure;Samples;Min_cycle;Max_cycle;Signal;HPM_P1;HPM_P2
2022/11/25 00:02:23;;;;;;;;;;;;;;;31.20;24.13;100239.16;4976722;28;1146;-22
2022/11/25 00:04:48;;;;;;;;;;;;;;;31.25;23.90;100244.72;4975689;28;1165;-22
2022/11/25 00:07:14;;;;;;;;;;;;;;;31.22;23.90;100237.84;4976795;28;1162;-23
2022/11/25 00:09:39;;;;;;;;;;;;;;;31.27;23.88;100242.59;4975892;28;2572;-23
2022/11/25 00:12:04;;;;;;;;;;;;;;;31.40;23.84;100253.38;4975456;28;1902;-22
2022/11/25 00:14:29;;;;;;;;;;;;;;;31.58;23.44;100242.75;4976222;28;1201;-22
2022/11/25 00:16:55;;;;;;;;;;;;;;;31.26;23.34;100254.53;4976412;28;1138;-22
2022/11/25 00:19:20;;;;;;;;;;;;;;;30.64;24.46;100248.75;4976497;28;1213;-22
2022/11/25 00:21:45;;;;;;;;;;;;;;;31.31;23.77;100246.56;4980105;28;1181;-23
2022/11/25 00:24:11;;;;;;;;;;;;;;;31.37;23.82;100247.53;4979228;28;1145;-23
2022/11/25 00:26:37;;;;;;;;;;;;;;;31.31;23.65;100253.88;4962890;28;1114;-23
2022/11/25 00:29:03;;;;;;;;;;;;;;;31.30;23.79;100255.75;4979790;28;1162;-22
2022/11/25 00:31:29;;;;;;;;;;;;;;;31.33;23.95;100249.84;4979767;28;1906;-23
2022/11/25 00:33:54;;;;;;;;;;;;;;;31.49;23.76;100253.94;4980630;28;1193;-22
2022/11/25 00:36:20;;;;;;;;;;;;;;;30.95;24.36;100246.22;4979751;28;1162;-22
2022/11/25 00:38:45;;;;;;;;;;;;;;;30.86;24.31;100250.28;4979243;28;2445;-22
2022/11/25 00:46:38;;;;;;;;;;;;;;;31.47;23.61;100264.19;4979402;28;1094;-22
2022/11/25 00:49:03;;;;;;;;;;;;;;;31.47;23.66;100271.50;4978574;28;1023;-24
2022/11/25 00:51:28;;;;;;;;;;;;;;;31.47;23.75;100263.34;4979529;28;1902;-23
2022/11/25 00:53:54;;;;;;;;;;;;;;;31.34;23.60;100258.84;4979427;28;1097;-22
2022/11/25 00:56:19;;;;;;;;;;;;;;;30.63;24.70;100274.22;4979206;28;1165;-22
2022/11/25 00:58:44;;;;;;;;;;;;;;;31.08;24.16;100264.28;4979374;28;1185;-23
2022/11/25 01:01:10;;;;;;;;;;;;;;;31.64;23.56;100271.75;4978589;28;867;-23
2022/11/25 01:03:38;;;;;;;;;;;;;;;31.07;23.77;100264.53;4978707;28;1114;-23
2022/11/25 01:06:04;;;;;;;;;;;;;;;30.29;24.87;100265.44;4979480;28;1114;-23
2022/11/25 01:08:29;;;;;;;;;;;;;;;30.51;24.71;100271.34;4979243;28;2331;-25
2022/11/25 01:10:58;;;;;;;;;;;;;;;30.82;24.52;100270.78;4977965;28;1948;-23
2022/11/25 01:13:23;;;;;;;;;;;;;;;30.87;24.40;100269.06;4978810;28;873;-23
2022/11/25 01:15:49;;;;;;;;;;;;;;;30.97;24.32;100271.28;4979163;28;1165;-22
2022/11/25 01:18:14;;;;;;;;;;;;;;;30.83;24.56;100275.97;4978970;28;1126;-22
2022/11/25 01:20:39;;;;;;;;;;;;;;;30.96;24.46;100271.50;4979001;28;1150;-23
2022/11/25 01:23:04;;;;;;;;;;;;;;;31.10;24.49;100262.19;4979020;28;1158;-23
2022/11/25 01:25:30;;;;;;;;;;;;;;;31.30;23.92;100268.53;4978003;28;1500;-23
2022/11/25 01:27:55;;;;;;;;;;;;;;;31.44;23.63;100269.25;4978753;28;1307;-22
2022/11/25 01:30:20;;;;;;;;;;;;;;;31.63;23.46;100262.75;4977885;28;1122;-23
2022/11/25 01:32:46;;;;;;;;;;;;;;;31.82;23.52;100275.53;4977941;28;1967;-22
2022/11/25 01:35:11;;;;;;;;;;;;;;;31.87;23.08;100271.09;4979074;28;1225;-23
2022/11/25 01:37:36;;;;;;;;;;;;;;;31.76;23.23;100275.38;4978355;28;1169;-22
2022/11/25 01:40:01;;;;;;;;;;;;;;;30.95;24.27;100280.72;4977948;28;2556;-22
2022/11/25 01:42:28;;;;;;;;;;;;;;;31.39;23.86;100284.34;4978433;28;1121;-22
2022/11/25 01:45:12;;;;;;;;;;;;;;;31.39;23.99;100286.22;4978223;28;1169;-21
2022/11/25 01:47:37;;;;;;;;;;;;;;;31.31;23.94;100290.03;4978575;28;1209;-22
2022/11/25 01:50:03;;;;;;;;;;;;;;;31.35;24.20;100291.25;4978017;28;1529;-22
2022/11/25 01:52:29;;;;;;;;;;;;;;;31.42;24.04;100282.22;4978634;28;1906;-23
2022/11/25 01:54:54;;;;;;;;;;;;;;;31.45;24.07;100290.75;4960616;28;1127;-23
2022/11/25 01:57:21;;;;;;;;;;;;;;;31.00;24.11;100286.31;4978178;28;1153;-22
2022/11/25 01:59:47;;;;;;;;;;;;;;;30.80;24.38;100281.84;4978248;28;1245;-24
2022/11/25 02:02:13;;;;;;;;;;;;;;;31.28;24.13;100272.28;4977885;28;928;-23
2022/11/25 02:04:38;;;;;;;;;;;;;;;31.33;23.99;100276.22;4978090;28;1224;-22
2022/11/25 02:07:08;;;;;;;;;;;;;;;31.45;24.06;100279.88;4977993;28;1142;-23
2022/11/25 02:09:34;;;;;;;;;;;;;;;31.35;24.08;100274.94;4977715;28;2592;-22
2022/11/25 02:11:59;;;;;;;;;;;;;;;31.32;24.08;100279.97;4977142;28;1890;-22
2022/11/25 02:14:24;;;;;;;;;;;;;;;31.47;23.89;100282.38;4977792;28;937;-22
2022/11/25 02:16:50;;;;;;;;;;;;;;;31.16;24.10;100284.94;4978010;28;1122;-22
2022/11/25 02:19:25;;;;;;;;;;;;;;;30.54;25.05;100287.22;4977686;28;1126;-22
2022/11/25 02:21:54;;;;;;;;;;;;;;;31.18;24.41;100287.44;4960789;28;1189;-22
2022/11/25 02:24:20;;;;;;;;;;;;;;;31.40;24.04;100291.44;4959272;28;1198;-22
2022/11/25 02:26:45;;;;;;;;;;;;;;;31.43;23.97;100297.50;4977742;28;1130;-22
2022/11/25 02:29:10;;;;;;;;;;;;;;;31.52;23.68;100288.81;4960680;28;1158;-23
2022/11/25 02:31:36;;;;;;;;;;;;;;;31.51;23.84;100298.00;4977641;28;1957;-22
2022/11/25 02:34:01;;;;;;;;;;;;;;;31.60;23.57;100297.72;4977292;28;1134;-22
2022/11/25 02:36:26;;;;;;;;;;;;;;;31.00;24.25;100303.44;4977280;28;1221;-23
2022/11/25 02:38:52;;;;;;;;;;;;;;;30.78;24.96;100295.63;4977687;28;2511;-23
2022/11/25 02:41:25;;;;;;;;;;;;;;;31.35;23.97;100293.13;4977399;28;1166;-23
2022/11/25 02:43:50;;;;;;;;;;;;;;;31.29;24.04;100292.13;4976873;28;1153;-24
2022/11/25 02:46:19;;;;;;;;;;;;;;;31.30;24.03;100288.34;4977517;28;1126;-23
2022/11/25 02:48:44;;;;;;;;;;;;;;;31.28;24.07;100282.34;4977068;28;1188;-23
2022/11/25 02:51:11;;;;;;;;;;;;;;;31.45;24.07;100277.16;4977115;28;1882;-23
2022/11/25 02:53:36;;;;;;;;;;;;;;;31.41;23.78;100289.56;4976342;28;1086;-23
2022/11/25 02:56:01;;;;;;;;;;;;;;;30.86;24.68;100293.75;4977131;28;1102;-23
2022/11/25 02:58:27;;;;;;;;;;;;;;;31.07;24.51;100291.69;4977655;28;1248;-23
2022/11/25 03:00:52;;;;;;;;;;;;;;;31.39;24.03;100302.53;4977019;28;1082;-23
2022/11/25 03:03:17;;;;;;;;;;;;;;;31.41;23.90;100297.72;4976355;28;1189;-23
2022/11/25 03:05:43;;;;;;;;;;;;;;;31.55;23.65;100303.84;4977591;28;1111;-24
2022/11/25 03:08:08;;;;;;;;;;;;;;;31.39;23.96;100305.25;4977072;28;2256;-23
2022/11/25 03:10:33;;;;;;;;;;;;;;;31.44;24.06;100307.28;4976657;28;1130;-25
2022/11/25 03:12:59;;;;;;;;;;;;;;;31.31;23.71;100308.22;4976550;28;1939;-23
2022/11/25 03:15:24;;;;;;;;;;;;;;;30.70;24.71;100314.88;4976344;28;1146;-23
2022/11/25 03:17:49;;;;;;;;;;;;;;;30.94;24.58;100311.63;4976864;28;1125;-22
2022/11/25 03:20:15;;;;;;;;;;;;;;;31.42;24.03;100312.09;4977030;28;1224;-22
2022/11/25 03:22:41;;;;;;;;;;;;;;;31.37;24.04;100318.19;4976741;28;1101;-22
2022/11/25 03:25:06;;;;;;;;;;;;;;;31.51;23.82;100314.31;4975088;28;1094;-23
2022/11/25 03:27:34;;;;;;;;;;;;;;;31.55;23.83;100313.91;4976909;28;1197;-23
2022/11/25 03:30:00;;;;;;;;;;;;;;;31.57;23.99;100320.75;4977446;28;1158;-22
2022/11/25 03:32:25;;;;;;;;;;;;;;;31.53;23.71;100325.81;4976601;28;1982;-24
2022/11/25 03:34:50;;;;;;;;;;;;;;;30.90;24.31;100325.66;4976076;28;1129;-22
2022/11/25 03:37:16;;;;;;;;;;;;;;;31.12;24.37;100321.75;4976142;28;1118;-23
2022/11/25 03:39:41;;;;;;;;;;;;;;;31.21;24.31;100325.88;4976126;28;2269;-22
2022/11/25 03:42:06;;;;;;;;;;;;;;;31.25;24.39;100329.78;4976703;28;1113;-22
2022/11/25 03:44:32;;;;;;;;;;;;;;;31.26;24.13;100326.00;4976097;28;1216;-22
2022/11/25 03:46:57;;;;;;;;;;;;;;;31.32;24.11;100334.31;4976454;28;949;-24
2022/11/25 03:49:22;;;;;;;;;;;;;;;31.41;23.79;100327.59;4976424;28;1170;-22
2022/11/25 03:51:47;;;;;;;;;;;;;;;31.56;23.97;100338.13;4976665;28;1964;-22
2022/11/25 03:54:13;;;;;;;;;;;;;;;31.79;23.63;100347.53;4977125;28;1220;-23
2022/11/25 03:56:38;;;;;;;;;;;;;;;31.77;23.47;100339.59;4980596;28;1099;-26
2022/11/25 03:59:03;;;;;;;;;;;;;;;31.97;23.20;100343.19;4980734;28;1146;-22
2022/11/25 04:01:29;;;;;;;;;;;;;;;31.98;23.16;100347.56;4979916;28;1629;-23
2022/11/25 04:03:54;;;;;;;;;;;;;;;31.21;24.31;100349.47;4980182;28;1106;-22
2022/11/25 04:06:20;;;;;;;;;;;;;;;31.39;24.24;100337.88;4980118;28;1038;-22
2022/11/25 04:08:46;;;;;;;;;;;;;;;31.47;23.93;100334.03;4975882;28;2348;-23
2022/11/25 04:11:11;;;;;;;;;;;;;;;31.56;24.06;100335.41;4980082;28;1887;-23
2022/11/25 04:13:36;;;;;;;;;;;;;;;31.55;24.05;100333.72;4979415;28;1134;-23
2022/11/25 04:16:02;;;;;;;;;;;;;;;31.79;23.81;100338.53;4979363;28;1146;-23
2022/11/25 04:18:27;;;;;;;;;;;;;;;31.81;23.48;100334.53;4980588;28;1178;-23
2022/11/25 04:20:53;;;;;;;;;;;;;;;31.31;23.77;100343.53;4980203;28;1122;-23
2022/11/25 04:23:18;;;;;;;;;;;;;;;31.10;24.00;100346.41;4979057;28;1232;-26
2022/11/25 04:25:43;;;;;;;;;;;;;;;31.47;23.94;100353.88;4980007;28;1102;-23
2022/11/25 04:28:08;;;;;;;;;;;;;;;31.35;23.82;100344.75;4979634;28;1122;-24
2022/11/25 04:30:34;;;;;;;;;;;;;;;31.38;24.12;100350.56;4979994;28;1103;-23
2022/11/25 04:32:59;;;;;;;;;;;;;;;31.41;23.84;100354.78;4980539;28;1902;-22
2022/11/25 04:35:25;;;;;;;;;;;;;;;31.55;23.81;100360.09;4979755;28;1137;-23
2022/11/25 04:37:50;;;;;;;;;;;;;;;31.55;23.91;100358.19;4978689;28;1098;-22
2022/11/25 04:40:15;;;;;;;;;;;;;;;30.13;21.43;100364.41;4980104;28;2684;-26
2022/11/25 04:42:41;;;;;;;;;;;;;;;29.00;21.82;100367.72;4980179;28;1212;-25
2022/11/25 04:45:08;;;;;;;;;;;;;;;28.42;21.94;100372.50;4979250;28;1134;-28
2022/11/25 04:47:34;;;;;;;;;;;;;;;28.62;24.45;100371.75;4979501;28;1094;-25
2022/11/25 04:49:59;;;;;;;;;;;;;;;29.02;23.69;100365.66;4979539;28;1196;-26
2022/11/25 04:52:24;;;;;;;;;;;;;;;28.94;24.23;100372.91;4979422;28;1902;-26
2022/11/25 04:54:50;;;;;;;;;;;;;;;28.88;24.22;100375.59;4979264;28;1145;-27
2022/11/25 04:57:15;;;;;;;;;;;;;;;29.07;24.25;100371.28;4977483;28;1318;-22
2022/11/25 04:59:41;;;;;;;;;;;;;;;29.67;24.29;100366.97;4979324;28;1335;-23
2022/11/25 05:02:09;;;;;;;;;;;;;;;29.55;23.02;100388.41;4977052;28;1172;-22
2022/11/25 05:04:34;;;;;;;;;;;;;;;29.00;22.66;100362.31;4978144;28;1323;-22
2022/11/25 05:07:00;;;;;;;;;;;;;;;29.46;23.02;100360.72;4976396;28;996;-22
2022/11/25 05:09:25;;;;;;;;;;;;;;;29.89;22.75;100370.28;4971137;28;2102;-23
2022/11/25 05:11:51;;;;;;;;;;;;;;;29.78;24.03;100362.81;4979443;28;2001;-22
2022/11/25 05:14:16;;;;;;;;;;;;;;;29.64;24.28;100368.22;4978581;28;1098;-23
2022/11/25 05:16:41;;;;;;;;;;;;;;;29.37;24.49;100372.78;4978946;28;1156;-23
2022/11/25 05:19:07;;;;;;;;;;;;;;;29.11;25.07;100377.97;4979018;28;1118;-22
2022/11/25 05:21:32;;;;;;;;;;;;;;;29.33;24.99;100384.03;4978003;28;1193;-22
2022/11/25 05:23:57;;;;;;;;;;;;;;;29.87;24.14;100385.09;4977945;28;1101;-22
2022/11/25 05:26:22;;;;;;;;;;;;;;;30.10;23.79;100381.06;4978411;28;1219;-22
2022/11/25 05:28:48;;;;;;;;;;;;;;;29.51;24.62;100387.16;4978382;28;1248;-22
2022/11/25 05:31:13;;;;;;;;;;;;;;;29.48;25.02;100391.13;4978239;28;1954;-22
2022/11/25 05:33:38;;;;;;;;;;;;;;;29.64;24.65;100402.63;4978200;28;1363;-22
2022/11/25 05:36:04;;;;;;;;;;;;;;;30.04;24.32;100418.03;4973412;28;1186;-23
2022/11/25 05:38:29;;;;;;;;;;;;;;;30.10;24.05;100419.03;4977302;28;1843;-23
2022/11/25 05:41:01;;;;;;;;;;;;;;;29.52;24.88;100426.78;4979028;28;1138;-24
2022/11/25 05:43:26;;;;;;;;;;;;;;;29.48;24.95;100428.25;4965060;28;1521;-22
2022/11/25 05:45:52;;;;;;;;;;;;;;;29.46;25.15;100439.28;4978347;28;1093;-22
2022/11/25 05:48:17;;;;;;;;;;;;;;;29.71;24.75;100444.13;4976686;28;1169;-22
2022/11/25 05:50:42;;;;;;;;;;;;;;;30.13;24.32;100452.00;4976716;28;1497;-22
2022/11/25 05:53:08;;;;;;;;;;;;;;;29.52;25.02;100456.59;4977947;28;1959;-21
2022/11/25 05:55:33;;;;;;;;;;;;;;;29.40;25.34;100464.47;4977175;28;1685;-21
2022/11/25 05:57:58;;;;;;;;;;;;;;;29.58;25.15;100470.13;4978365;28;1070;-22
2022/11/25 06:00:24;;;;;;;;;;;;;;;29.67;24.89;100478.09;4977862;28;1446;-22
2022/11/25 06:02:49;;;;;;;;;;;;;;;30.01;24.42;100476.22;4978602;28;1111;-22
2022/11/25 06:05:15;;;;;;;;;;;;;;;29.42;25.20;100489.50;4978299;28;1078;-22
2022/11/25 06:07:40;;;;;;;;;;;;;;;29.15;25.56;100484.84;4978082;28;1138;-23
2022/11/25 06:10:06;;;;;;;;;;;;;;;29.32;25.51;100493.44;4975074;28;1302;-22
2022/11/25 06:12:31;;;;;;;;;;;;;;;29.50;25.43;100494.72;4978244;28;1976;-23
2022/11/25 06:14:56;;;;;;;;;;;;;;;29.72;24.92;100504.59;4974159;28;1314;-22
2022/11/25 06:17:21;;;;;;;;;;;;;;;29.73;24.88;100508.97;4967951;28;1402;-22
2022/11/25 06:19:47;;;;;;;;;;;;;;;29.84;24.82;100513.78;4974881;28;1390;-23
2022/11/25 06:22:12;;;;;;;;;;;;;;;29.21;25.61;100508.41;4978370;28;1161;-22
2022/11/25 06:24:38;;;;;;;;;;;;;;;29.48;25.03;100504.13;4975819;28;1195;-22
2022/11/25 06:27:03;;;;;;;;;;;;;;;29.74;23.97;100510.66;4976829;28;1032;-22
2022/11/25 06:29:28;;;;;;;;;;;;;;;29.97;23.68;100503.97;4978083;28;1101;-21
2022/11/25 06:31:54;;;;;;;;;;;;;;;30.02;23.63;100509.59;4977508;28;1907;-22
2022/11/25 06:34:19;;;;;;;;;;;;;;;29.92;23.88;100515.44;4974799;28;1478;-22
2022/11/25 06:36:44;;;;;;;;;;;;;;;29.74;24.33;100511.47;4977086;28;1362;-21
2022/11/25 06:39:09;;;;;;;;;;;;;;;29.00;25.05;100503.97;4976777;28;1215;-22
2022/11/25 06:41:35;;;;;;;;;;;;;;;29.20;24.99;100528.41;4977604;28;1129;-22
2022/11/25 06:44:00;;;;;;;;;;;;;;;29.59;24.32;100530.66;4977107;28;1275;-23
2022/11/25 06:46:25;;;;;;;;;;;;;;;29.76;24.19;100525.66;4977768;28;1034;-22
2022/11/25 06:48:54;;;;;;;;;;;;;;;29.96;23.48;100527.56;4976790;28;1152;-22
2022/11/25 06:51:19;;;;;;;;;;;;;;;29.80;23.19;100528.78;4976682;28;1902;-24
2022/11/25 06:53:44;;;;;;;;;;;;;;;29.62;23.78;100522.09;4977233;28;1133;-22
2022/11/25 06:56:17;;;;;;;;;;;;;;;29.00;24.45;100528.31;4976820;28;1217;-22
2022/11/25 06:58:42;;;;;;;;;;;;;;;29.05;24.83;100531.28;4977322;28;1532;-25
2022/11/25 07:01:12;;;;;;;;;;;;;;;29.82;23.91;100534.84;4972570;28;1165;-24
2022/11/25 07:03:37;;;;;;;;;;;;;;;30.09;23.66;100532.16;4970260;28;1356;-23
2022/11/25 07:06:02;;;;;;;;;;;;;;;30.29;23.43;100534.91;4971139;28;1576;-23
2022/11/25 07:08:27;;;;;;;;;;;;;;;29.58;23.61;100535.19;4965907;28;1122;-22
2022/11/25 07:10:53;;;;;;;;;;;;;;;29.06;24.38;100518.56;4976988;28;1102;-23
2022/11/25 07:13:19;;;;;;;;;;;;;;;29.52;24.42;100529.75;4973429;28;1969;-24
2022/11/25 07:15:44;;;;;;;;;;;;;;;29.68;23.99;100536.69;4976762;28;1172;-23
2022/11/25 07:18:09;;;;;;;;;;;;;;;30.00;23.79;100533.38;4976616;28;1109;-23
2022/11/25 07:20:34;;;;;;;;;;;;;;;29.93;23.27;100515.25;4976208;28;1319;-22
2022/11/25 07:23:00;;;;;;;;;;;;;;;29.47;23.97;100524.94;4976590;28;1252;-25
2022/11/25 07:25:25;;;;;;;;;;;;;;;29.76;23.86;100517.50;4973087;28;1164;-23
2022/11/25 07:27:50;;;;;;;;;;;;;;;30.05;23.37;100533.59;4976594;28;1164;-24
2022/11/25 07:30:16;;;;;;;;;;;;;;;29.64;23.30;100530.88;4976300;28;951;-23
2022/11/25 07:32:41;;;;;;;;;;;;;;;29.53;23.39;100534.16;4976281;28;1914;-23
2022/11/25 07:35:06;;;;;;;;;;;;;;;29.39;24.05;100530.56;4976597;28;1173;-22
2022/11/25 07:37:32;;;;;;;;;;;;;;;29.49;23.59;100541.84;4976331;28;1154;-23
2022/11/25 07:39:57;;;;;;;;;;;;;;;29.75;23.45;100536.69;4976927;28;1185;-25
2022/11/25 07:42:23;;;;;;;;;;;;;;;30.06;23.24;100540.72;4976818;28;1109;-24
2022/11/25 07:44:48;;;;;;;;;;;;;;;30.01;23.11;100559.47;4976234;28;1200;-26
2022/11/25 07:47:14;;;;;;;;;;;;;;;29.35;23.37;100554.50;4977700;28;1149;-24
2022/11/25 07:49:39;;;;;;;;;;;;;;;29.04;23.83;100566.69;4975732;28;1274;-26
2022/11/25 07:52:04;;;;;;;;;;;;;;;29.86;22.92;100571.38;4976095;28;1891;-23
2022/11/25 07:54:30;;;;;;;;;;;;;;;30.22;22.65;100574.75;4976441;28;1141;-23
2022/11/25 07:56:55;;;;;;;;;;;;;;;29.19;23.34;100574.66;4976701;28;1145;-24
2022/11/25 07:59:21;;;;;;;;;;;;;;;28.59;24.06;100573.25;4976693;28;1189;-23
2022/11/25 08:01:49;;;;;;;;;;;;;;;29.24;23.87;100580.31;4959661;28;1151;-23
2022/11/25 08:04:15;;;;;;;;;;;;;;;29.46;23.43;100585.63;4974812;28;1294;-22
2022/11/25 08:06:43;;;;;;;;;;;;;;;29.78;23.38;100591.34;4974348;28;1596;-23
2022/11/25 08:09:09;;;;;;;;;;;;;;;29.52;23.42;100581.25;4976349;28;1091;-25
2022/11/25 08:11:36;;;;;;;;;;;;;;;29.18;23.51;100583.81;4977068;28;1964;-23
2022/11/25 08:14:01;;;;;;;;;;;;;;;29.28;23.94;100581.56;4975696;28;1094;-22
2022/11/25 08:16:27;;;;;;;;;;;;;;;29.61;23.72;100587.34;4975408;28;1151;-23
2022/11/25 08:18:53;;;;;;;;;;;;;;;29.88;23.36;100592.84;4975885;28;1245;-22
2022/11/25 08:21:18;;;;;;;;;;;;;;;29.21;23.38;100584.25;4972486;28;1338;-25
2022/11/25 08:23:46;;;;;;;;;;;;;;;29.01;23.96;100599.56;4974731;28;1501;-24
2022/11/25 08:26:13;;;;;;;;;;;;;;;29.33;24.07;100597.22;4973252;28;996;-23
2022/11/25 08:28:40;;;;;;;;;;;;;;;29.59;23.78;100590.28;4975852;28;1234;-25
2022/11/25 08:31:09;;;;;;;;;;;;;;;29.89;23.10;100595.34;4974185;28;1350;-25
2022/11/25 08:33:34;;;;;;;;;;;;;;;29.12;23.96;100592.75;4972506;28;1906;-22
2022/11/25 08:35:59;;;;;;;;;;;;;;;29.24;23.76;100602.00;4975956;28;1181;-23
2022/11/25 08:38:25;;;;;;;;;;;;;;;29.41;23.94;100591.63;4973142;28;1221;-22
2022/11/25 08:40:50;;;;;;;;;;;;;;;29.53;23.62;100593.78;4976673;28;1241;-25
2022/11/25 08:43:16;;;;;;;;;;;;;;;29.79;23.28;100595.75;4978743;28;1197;-24
2022/11/25 08:45:41;;;;;;;;;;;;;;;29.15;22.97;100595.91;4978639;28;1195;-22
2022/11/25 08:48:07;;;;;;;;;;;;;;;28.72;24.39;100603.13;4975453;28;1423;-23
2022/11/25 08:50:32;;;;;;;;;;;;;;;29.39;23.54;100599.13;4975736;28;1225;-23
2022/11/25 08:52:58;;;;;;;;;;;;;;;29.67;23.33;100600.09;4976884;28;1983;-23
2022/11/25 08:55:26;;;;;;;;;;;;;;;29.68;23.39;100596.31;4978616;28;1051;-23
2022/11/25 08:57:51;;;;;;;;;;;;;;;29.12;24.20;100603.59;4979164;28;1210;-23
2022/11/25 09:00:16;;;;;;;;;;;;;;;29.20;24.48;100606.13;4979977;28;1161;-23
2022/11/25 09:02:42;;;;;;;;;;;;;;;29.34;23.85;100602.44;4978274;28;1187;-24
2022/11/25 09:05:07;;;;;;;;;;;;;;;29.62;23.42;100608.00;4976972;28;1055;-23
2022/11/25 09:07:32;;;;;;;;;;;;;;;29.90;23.15;100609.72;4978562;28;1284;-23
2022/11/25 09:09:58;;;;;;;;;;;;;;;29.09;23.89;100619.19;4979730;28;1114;-23
2022/11/25 09:12:23;;;;;;;;;;;;;;;28.95;24.37;100615.56;4979227;28;1902;-23
2022/11/25 09:14:48;;;;;;;;;;;;;;;29.17;24.00;100618.22;4977059;28;1327;-23
2022/11/25 09:17:15;;;;;;;;;;;;;;;29.47;23.64;100619.78;4978952;28;1106;-23
2022/11/25 09:19:40;;;;;;;;;;;;;;;29.92;23.06;100621.22;4978979;28;1169;-23
2022/11/25 09:22:05;;;;;;;;;;;;;;;29.87;22.92;100618.28;4975002;28;1179;-23
2022/11/25 09:24:31;;;;;;;;;;;;;;;29.13;23.85;100618.81;4976766;28;1399;-23
2022/11/25 09:26:56;;;;;;;;;;;;;;;29.30;23.96;100622.84;4973945;28;1292;-23
2022/11/25 09:29:21;;;;;;;;;;;;;;;29.75;23.34;100623.44;4978696;28;1019;-25
2022/11/25 09:31:48;;;;;;;;;;;;;;;29.48;23.12;100632.28;4979534;28;1977;-23
2022/11/25 09:34:14;;;;;;;;;;;;;;;29.04;23.76;100618.97;4978777;28;1161;-22
2022/11/25 09:36:39;;;;;;;;;;;;;;;29.24;23.75;100622.81;4978673;28;1143;-23
2022/11/25 09:39:05;;;;;;;;;;;;;;;29.41;23.56;100623.31;4978354;28;1320;-23
2022/11/25 09:47:22;;;;;;;;;;;;;;;28.90;23.83;100630.72;4963713;28;928;-23
2022/11/25 09:49:50;;;;;;;;;;;;;;;29.42;23.54;100627.69;4960837;28;1221;-23
2022/11/25 09:52:34;;;;;;;;;;;;;;;29.65;23.28;100640.09;4977856;28;1902;-22
2022/11/25 09:55:02;;;;;;;;;;;;;;;29.72;22.78;100634.72;4978162;28;979;-23
2022/11/25 09:57:36;;;;;;;;;;;;;;;29.06;23.64;100627.72;4978268;28;1152;-23
2022/11/25 10:00:06;;;;;;;;;;;;;;;29.41;23.60;100628.75;4970846;28;1287;-24
2022/11/25 10:03:07;;;;;;;;;;;;;;;29.58;23.57;100635.47;4975359;28;1265;-22
2022/11/25 10:05:40;;;;;;;;;;;;;;;29.60;22.98;100643.44;4897380;29;1266;-22
2022/11/25 10:08:25;;;;;;;;;;;;;;;29.23;23.83;100638.22;4962686;28;1355;-23
2022/11/25 10:11:09;;;;;;;;;;;;;;;29.31;24.07;100640.78;4977020;28;1131;-23
2022/11/25 10:13:45;;;;;;;;;;;;;;;29.49;23.86;100639.41;4975523;28;1922;-22
2022/11/25 10:16:37;;;;;;;;;;;;;;;29.77;23.53;100634.94;4960838;28;1237;-23
2022/11/25 10:19:21;;;;;;;;;;;;;;;29.38;23.95;100632.66;4945275;28;1456;-23
2022/11/25 10:21:46;;;;;;;;;;;;;;;29.34;24.04;100642.25;4974898;28;2462;-24
2022/11/25 10:24:13;;;;;;;;;;;;;;;29.32;24.03;100644.31;4977678;28;1270;-23
2022/11/25 10:26:39;;;;;;;;;;;;;;;29.37;23.88;100643.72;4953345;28;2198;-23
2022/11/25 10:29:18;;;;;;;;;;;;;;;29.75;23.58;100637.84;4952594;28;2182;-23
2022/11/25 10:31:44;;;;;;;;;;;;;;;29.89;23.22;100648.75;4957098;28;1973;-22
2022/11/25 10:34:29;;;;;;;;;;;;;;;29.69;23.41;100649.50;4977057;28;2235;-24
2022/11/25 10:36:55;;;;;;;;;;;;;;;28.96;24.39;100640.78;4966074;28;1374;-23
2022/11/25 10:39:25;;;;;;;;;;;;;;;29.57;23.66;100644.66;4977291;28;1016;-23
2022/11/25 10:42:11;;;;;;;;;;;;;;;29.94;23.21;100647.09;4959610;28;1158;-23
2022/11/25 10:44:37;;;;;;;;;;;;;;;29.34;23.72;100634.13;4960206;28;1111;-23
2022/11/25 10:47:08;;;;;;;;;;;;;;;29.27;23.91;100642.22;4976958;28;1262;-24
2022/11/25 10:49:34;;;;;;;;;;;;;;;29.43;23.78;100643.75;4976538;28;1113;-23
2022/11/25 10:51:59;;;;;;;;;;;;;;;29.75;23.34;100639.72;4976634;28;1898;-23
2022/11/25 10:54:25;;;;;;;;;;;;;;;30.08;22.95;100632.72;4977124;28;968;-22
2022/11/25 10:56:52;;;;;;;;;;;;;;;29.68;23.36;100651.38;4977013;28;1279;-22
2022/11/25 10:59:34;;;;;;;;;;;;;;;29.48;23.63;100653.16;4977070;28;1074;-23
2022/11/25 11:02:21;;;;;;;;;;;;;;;29.78;23.21;100648.28;4977094;28;1125;-24
2022/11/25 11:04:56;;;;;;;;;;;;;;;29.98;22.99;100655.63;4974795;28;979;-23
2022/11/25 11:07:21;;;;;;;;;;;;;;;29.88;23.04;100661.44;4965865;28;1933;-22
2022/11/25 11:09:47;;;;;;;;;;;;;;;29.47;23.20;100660.44;4976364;28;960;-22
2022/11/25 11:12:14;;;;;;;;;;;;;;;29.41;23.70;100656.66;4974772;28;1960;-22
2022/11/25 11:14:40;;;;;;;;;;;;;;;29.42;23.64;100668.34;4957556;28;1178;-23
2022/11/25 11:17:05;;;;;;;;;;;;;;;29.42;23.61;100654.78;4976102;28;1413;-23
2022/11/25 11:19:31;;;;;;;;;;;;;;;29.67;23.22;100655.16;4975470;28;1271;-24
2022/11/25 11:21:56;;;;;;;;;;;;;;;29.77;23.04;100662.91;4976224;28;1201;-25
2022/11/25 11:24:28;;;;;;;;;;;;;;;29.13;23.56;100665.69;4975599;28;1245;-22
2022/11/25 11:27:00;;;;;;;;;;;;;;;28.92;23.99;100667.41;4974715;28;1274;-23
2022/11/25 11:29:26;;;;;;;;;;;;;;;29.62;23.50;100676.59;4976393;28;1050;-23
2022/11/25 11:31:55;;;;;;;;;;;;;;;30.02;22.72;100665.06;4975998;28;1979;-23
2022/11/25 11:34:39;;;;;;;;;;;;;;;29.51;22.59;100650.03;4955811;28;1108;-22
2022/11/25 11:37:22;;;;;;;;;;;;;;;29.32;23.41;100666.00;4976329;28;1928;-23
2022/11/25 11:40:06;;;;;;;;;;;;;;;29.40;23.39;100668.53;4976269;28;1130;-23
2022/11/25 11:42:40;;;;;;;;;;;;;;;29.55;23.02;100686.53;4976304;28;990;-23
2022/11/25 11:45:15;;;;;;;;;;;;;;;29.90;22.93;100681.06;4959458;28;1040;-23
2022/11/25 11:47:43;;;;;;;;;;;;;;;30.08;22.74;100684.25;4965339;28;1358;-23
2022/11/25 11:50:17;;;;;;;;;;;;;;;29.64;22.92;100692.66;4975969;28;1079;-23
2022/11/25 11:52:47;;;;;;;;;;;;;;;28.84;23.93;100697.31;4958763;28;1922;-24
2022/11/25 11:55:31;;;;;;;;;;;;;;;29.53;23.28;100691.34;4958496;28;1048;-26
2022/11/25 11:58:03;;;;;;;;;;;;;;;29.90;22.75;100699.22;4959820;28;1079;-23
2022/11/25 12:00:29;;;;;;;;;;;;;;;29.88;22.47;100698.59;4975387;28;1185;-24
2022/11/25 12:03:09;;;;;;;;;;;;;;;28.72;23.75;100700.56;4957535;28;1090;-24
2022/11/25 12:05:35;;;;;;;;;;;;;;;28.85;23.75;100699.00;4974831;28;1004;-22
2022/11/25 12:08:18;;;;;;;;;;;;;;;29.07;23.70;100698.97;4964350;28;1909;-23
2022/11/25 12:10:52;;;;;;;;;;;;;;;29.28;23.25;100702.66;4956794;28;1218;-23
2022/11/25 12:13:36;;;;;;;;;;;;;;;29.73;22.92;100710.41;4959813;28;1930;-24
2022/11/25 12:16:13;;;;;;;;;;;;;;;29.76;22.87;100714.59;4975752;28;1326;-23
2022/11/25 12:18:50;;;;;;;;;;;;;;;29.37;22.95;100719.59;4975648;28;881;-22
2022/11/25 12:21:34;;;;;;;;;;;;;;;28.58;23.86;100712.28;4978624;28;1078;-23
2022/11/25 12:24:02;;;;;;;;;;;;;;;29.40;23.16;100708.34;4979439;28;1285;-23
2022/11/25 12:26:30;;;;;;;;;;;;;;;29.76;22.94;100714.59;4979625;28;1050;-22
2022/11/25 12:28:56;;;;;;;;;;;;;;;30.00;22.56;100718.66;4968636;28;1106;-23
2022/11/25 12:31:26;;;;;;;;;;;;;;;30.14;22.35;100716.84;4978956;28;2006;-22
2022/11/25 12:34:08;;;;;;;;;;;;;;;29.81;22.71;100722.97;4975239;28;983;-23
2022/11/25 12:36:34;;;;;;;;;;;;;;;29.26;23.54;100719.09;4958361;28;1256;-23
2022/11/25 12:39:04;;;;;;;;;;;;;;;28.65;23.40;100729.44;4978987;28;1241;-22
2022/11/25 12:41:31;;;;;;;;;;;;;;;29.52;22.87;100725.72;4974098;28;1342;-22
2022/11/25 12:44:16;;;;;;;;;;;;;;;29.75;22.73;100721.06;4958198;28;1355;-22
2022/11/25 12:46:41;;;;;;;;;;;;;;;29.91;22.88;100723.41;4965714;28;1042;-23
2022/11/25 12:49:11;;;;;;;;;;;;;;;29.92;22.92;100724.25;4978907;28;1226;-22
2022/11/25 12:51:36;;;;;;;;;;;;;;;29.80;23.05;100715.88;4961420;28;1902;-23
2022/11/25 12:54:09;;;;;;;;;;;;;;;28.80;24.16;100714.97;4977085;28;1078;-23
2022/11/25 12:56:42;;;;;;;;;;;;;;;28.90;24.20;100722.75;4960996;28;1313;-23
2022/11/25 12:59:08;;;;;;;;;;;;;;;29.61;23.33;100721.00;4962553;28;1138;-23
2022/11/25 13:01:33;;;;;;;;;;;;;;;29.94;22.97;100716.75;4978975;28;1102;-23